MDLR/LRM METAR and TAF weather

Enter ICAO airport designator
Station Type Date Time Source
MDLR METAR 2019/10/20 19:00 UTC NOAA

MDLR 201900Z 09012KT 8000 VCSH FEW020CB SCT022 32/23 Q1012 CB/E/SW/NW


Station Type Date Time Source
MDLR Decoded METAR 2019/10/20 19:00 UTC NOAA

La Romana International Airport, Dominican Republic (MDLR) 18-25N 068-57W
Oct 20, 2019 - 03:00 PM EDT / 2019.10.20 1900 UTC
Wind: from the E (090 degrees) at 14 MPH (12 KT):0
Visibility: 4 mile(s):0
Sky conditions: partly cloudy
Weather: showers in the vicinity; Cumulonimbus clouds observed
Temperature: 89 F (32 C)
Heat index: 96.8 F (36.0 C):1
Dew Point: 73 F (23 C)
Relative Humidity: 59%
Pressure (altimeter): 29.88 in. Hg (1012 hPa)
ob: MDLR 201900Z 09012KT 8000 VCSH FEW020CB SCT022 32/23 Q1012 CB/E/SW/NW
cycle: 19

Station Type Date Time Source
MDLR TAF 2019/10/20 18:17 UTC NOAA

TAF MDLR 201600Z 2018/2118 12012KT 9999 SCT022 PROB30 2018/2100 7000 -TSRA FEW014CB BKN016
BECMG 2101/2103 00000KT

Example: see airport list